Time;durP1;ratioP1;P1;durP2;ratioP2;P2;SDS_P1;SDS_P2;PMS_P1;PMS_P2;Temp;Humidity;BMP_temperature;BMP_pressure;BME280_temperature;BME280_humidity;BME280_pressure;Samples;Min_cycle;Max_cycle;Signal;HPM_P1;HPM_P2
2022/05/26 00:01:04;;;;;;;;;;;13.50;99.90;;;;;;5092572;28;20058;-64
2022/05/26 00:03:34;;;;;;;44.92;9.65;;;14.90;99.90;;;;;;5093278;28;20338;-65
2022/05/26 00:06:01;;;;;;;43.42;9.02;;;13.40;99.90;;;;;;5093068;28;20048;-65
2022/05/26 00:08:27;;;;;;;;;;;13.50;99.90;;;;;;5093306;28;20048;-64
2022/05/26 00:10:53;;;;;;;48.08;7.82;;;13.30;99.90;;;;;;5093182;28;19927;-64
2022/05/26 00:13:19;;;;;;;37.10;8.30;;;13.40;99.90;;;;;;5093063;28;20060;-66
2022/05/26 00:15:45;;;;;;;39.20;9.10;;;13.40;99.90;;;;;;5092823;28;20044;-64
2022/05/26 00:18:11;;;;;;;42.58;9.60;;;13.20;99.90;;;;;;5092666;28;20055;-65
2022/05/26 00:20:36;;;;;;;38.92;8.60;;;13.30;99.90;;;;;;5092888;28;20055;-63
2022/05/26 00:23:02;;;;;;;44.97;9.95;;;13.50;99.90;;;;;;5091575;28;20050;-65
2022/05/26 00:25:28;;;;;;;;;;;13.80;99.90;;;;;;5093309;28;20094;-67
2022/05/26 00:27:54;;;;;;;47.38;9.65;;;14.00;99.90;;;;;;5092955;28;19967;-64
2022/05/26 00:30:20;;;;;;;44.30;8.95;;;13.10;99.90;;;;;;5092899;28;20117;-65
2022/05/26 00:32:45;;;;;;;41.15;8.40;;;14.20;99.90;;;;;;5092686;28;20056;-64
2022/05/26 00:35:12;;;;;;;40.88;8.77;;;13.10;99.90;;;;;;5091085;28;20422;-64
2022/05/26 00:37:38;;;;;;;44.80;9.68;;;13.10;99.90;;;;;;5092894;28;20086;-64
2022/05/26 00:40:06;;;;;;;44.10;8.77;;;14.50;99.90;;;;;;5092634;28;20055;-64
2022/05/26 00:42:31;;;;;;;50.47;10.15;;;12.80;99.90;;;;;;5092993;28;20044;-65
2022/05/26 00:44:57;;;;;;;51.47;8.82;;;13.20;99.90;;;;;;5092563;28;20051;-64
2022/05/26 00:47:28;;;;;;;40.25;9.45;;;13.20;99.90;;;;;;5092543;28;20093;-64
2022/05/26 00:50:02;;;;;;;47.92;8.95;;;13.30;99.90;;;;;;5092580;28;20400;-64
2022/05/26 00:52:35;;;;;;;40.47;8.73;;;13.00;99.90;;;;;;5092309;28;20051;-64
2022/05/26 00:55:16;;;;;;;36.88;8.57;;;13.30;99.90;;;;;;5092616;28;20051;-64
2022/05/26 00:57:53;;;;;;;38.33;8.57;;;13.20;99.90;;;;;;5092431;28;20044;-64
2022/05/26 01:00:26;;;;;;;33.38;8.25;;;13.50;99.90;;;;;;5092419;28;20548;-64
2022/05/26 01:03:16;;;;;;;36.45;7.80;;;13.40;99.90;;;;;;5092274;28;20096;-64
2022/05/26 01:05:52;;;;;;;37.47;7.05;;;13.30;99.90;;;;;;5092498;28;20097;-64
2022/05/26 01:08:42;;;;;;;38.47;7.78;;;13.30;99.90;;;;;;5091214;28;20059;-64
2022/05/26 01:11:08;;;;;;;33.13;6.05;;;13.40;99.90;;;;;;5092046;28;20093;-65
2022/05/26 01:13:38;;;;;;;;;;;13.20;99.90;;;;;;5092828;28;20048;-64
2022/05/26 01:16:16;;;;;;;27.42;5.70;;;13.60;99.90;;;;;;5092446;28;20322;-65
2022/05/26 01:19:08;;;;;;;26.65;6.50;;;13.30;99.90;;;;;;5092365;28;20048;-65
2022/05/26 01:21:45;;;;;;;33.50;5.70;;;13.30;99.90;;;;;;5090210;28;20048;-65
2022/05/26 01:24:39;;;;;;;16.40;4.57;;;13.40;99.90;;;;;;5092229;28;20070;-65
2022/05/26 01:27:26;;;;;;;26.25;4.88;;;13.50;99.90;;;;;;5092197;28;20040;-64
2022/05/26 01:30:10;;;;;;;23.42;4.95;;;13.30;99.90;;;;;;5091897;28;20143;-65
2022/05/26 01:32:54;;;;;;;20.60;4.30;;;14.60;99.90;;;;;;5091950;28;20529;-65
2022/05/26 01:35:57;;;;;;;19.70;4.03;;;13.20;99.90;;;;;;5090948;28;20487;-65
2022/05/26 01:38:35;;;;;;;22.38;3.53;;;13.20;99.90;;;;;;5068523;28;20059;-64
2022/05/26 01:41:39;;;;;;;20.30;4.72;;;13.40;99.90;;;;;;5091945;28;20512;-66
2022/05/26 01:44:26;;;;;;;20.83;3.83;;;13.40;99.90;;;;;;5091993;28;20093;-67
2022/05/26 01:46:58;;;;;;;12.38;3.90;;;13.10;99.90;;;;;;5094732;28;20097;-65
2022/05/26 01:49:42;;;;;;;17.15;3.72;;;14.10;99.90;;;;;;5094563;28;20111;-65
2022/05/26 01:52:16;;;;;;;18.75;4.47;;;13.30;99.90;;;;;;5095681;28;20051;-65
2022/05/26 01:55:01;;;;;;;18.85;4.05;;;13.10;99.90;;;;;;5094314;28;20044;-65
2022/05/26 01:57:33;;;;;;;15.95;3.85;;;13.60;99.90;;;;;;5095849;28;20044;-66
2022/05/26 02:00:09;;;;;;;18.70;4.00;;;13.10;99.90;;;;;;5095563;28;20495;-64
2022/05/26 02:03:01;;;;;;;18.60;5.35;;;13.40;99.90;;;;;;5095549;28;20066;-64
2022/05/26 02:05:31;;;;;;;18.08;4.43;;;12.90;99.90;;;;;;5095014;28;20052;-65
2022/05/26 02:08:17;;;;;;;22.50;5.05;;;12.90;99.90;;;;;;5095384;28;20442;-66
2022/05/26 02:11:00;;;;;;;27.55;5.53;;;13.70;99.90;;;;;;5095502;28;20048;-65
2022/05/26 02:13:33;;;;;;;23.55;4.20;;;13.00;99.90;;;;;;5094019;28;20176;-69
2022/05/26 02:16:23;;;;;;;21.80;4.40;;;13.30;99.90;;;;;;5094051;28;20040;-65
2022/05/26 02:19:01;;;;;;;18.95;4.70;;;13.00;99.90;;;;;;5095286;28;20044;-64
2022/05/26 02:21:36;;;;;;;25.30;4.75;;;13.10;99.90;;;;;;5095299;28;20071;-65
2022/05/26 02:24:21;;;;;;;17.50;4.30;;;13.20;99.90;;;;;;5094997;28;20048;-65
2022/05/26 02:26:47;;;;;;;19.90;3.97;;;13.00;99.90;;;;;;5095219;28;20056;-65
2022/05/26 02:31:57;;;;;;;25.35;5.05;;;14.30;99.90;;;;;;5094610;28;20090;-65
2022/05/26 02:34:24;;;;;;;;;;;13.20;99.90;;;;;;5095267;28;20083;-65
2022/05/26 02:36:55;;;;;;;17.20;4.07;;;12.90;99.90;;;;;;5094966;28;19920;-65
2022/05/26 02:39:21;;;;;;;19.33;4.32;;;13.20;99.90;;;;;;5095133;28;20189;-66
2022/05/26 02:41:47;;;;;;;19.92;4.68;;;13.10;99.90;;;;;;5094771;28;20122;-65
2022/05/26 02:44:12;;;;;;;22.23;4.40;;;12.90;99.90;;;;;;5093461;28;20044;-65
2022/05/26 02:46:44;;;;;;;17.77;3.90;;;13.00;99.90;;;;;;5094509;28;20507;-64
2022/05/26 02:49:31;;;;;;;19.70;4.10;;;12.80;99.90;;;;;;5094477;28;20048;-64
2022/05/26 02:52:16;;;;;;;20.60;3.75;;;12.40;99.90;;;;;;5094617;28;20064;-67
2022/05/26 02:54:53;;;;;;;20.90;3.67;;;13.90;99.90;;;;;;5094459;28;20169;-65
2022/05/26 02:57:27;;;;;;;12.45;2.97;;;12.50;99.90;;;;;;5093882;28;20048;-65
2022/05/26 03:00:05;;;;;;;16.88;4.00;;;12.70;99.90;;;;;;5094314;28;20077;-65
2022/05/26 03:02:31;;;;;;;16.10;4.18;;;12.70;99.90;;;;;;5094316;28;20500;-69
2022/05/26 03:05:05;;;;;;;18.08;4.18;;;12.40;99.90;;;;;;5094382;28;20036;-65
2022/05/26 03:07:33;;;;;;;16.08;4.43;;;12.30;99.90;;;;;;5093072;28;20124;-64
2022/05/26 03:10:03;;;;;;;14.40;4.93;;;12.80;99.90;;;;;;5094161;28;20059;-65
2022/05/26 03:12:33;;;;;;;23.02;3.45;;;12.60;99.90;;;;;;5092865;28;20036;-64
2022/05/26 03:14:59;;;;;;;16.90;3.22;;;12.50;99.90;;;;;;5094288;28;20039;-65
2022/05/26 03:17:24;;;;;;;16.98;4.25;;;13.30;99.90;;;;;;5094107;28;20048;-64
2022/05/26 03:19:50;;;;;;;17.60;4.00;;;12.70;99.90;;;;;;5094010;28;20150;-64
2022/05/26 03:22:16;;;;;;;12.30;3.40;;;12.50;99.90;;;;;;5093979;28;20078;-66
2022/05/26 03:24:42;;;;;;;15.15;3.55;;;12.60;99.90;;;;;;5093835;28;20454;-65
2022/05/26 03:27:08;;;;;;;24.65;4.00;;;12.20;99.90;;;;;;5093882;28;20072;-64
2022/05/26 03:29:34;;;;;;;;;;;12.30;99.90;;;;;;5094256;28;20055;-64
2022/05/26 03:32:00;;;;;;;15.65;4.22;;;12.80;99.90;;;;;;5093792;28;19920;-64
2022/05/26 03:42:39;;;;;;;18.88;3.55;;;13.60;99.90;;;;;;5093703;28;20048;-64
2022/05/26 03:45:06;;;;;;;;;;;12.40;99.90;;;;;;5093971;28;20127;-64
2022/05/26 03:47:32;;;;;;;18.83;3.67;;;12.40;99.90;;;;;;5093236;28;19924;-66
2022/05/26 03:49:58;;;;;;;15.63;3.33;;;12.50;99.90;;;;;;5093548;28;20046;-65
2022/05/26 03:52:24;;;;;;;18.38;3.58;;;12.20;99.90;;;;;;5093240;28;20036;-64
2022/05/26 03:54:50;;;;;;;15.35;3.53;;;12.20;99.90;;;;;;5093407;28;20075;-64
2022/05/26 03:57:26;;;;;;;18.00;3.40;;;12.80;99.90;;;;;;5093285;28;20052;-64
2022/05/26 03:59:51;;;;;;;15.30;2.90;;;12.40;99.90;;;;;;5093161;28;20047;-64
2022/05/26 04:02:17;;;;;;;14.93;3.38;;;12.50;99.90;;;;;;5093159;28;20048;-66
2022/05/26 04:04:44;;;;;;;17.35;3.00;;;12.20;99.90;;;;;;5091947;28;20040;-64
2022/05/26 04:07:10;;;;;;;11.77;2.70;;;12.40;99.90;;;;;;5093289;28;20101;-64
2022/05/26 04:09:36;;;;;;;14.80;3.38;;;12.40;99.90;;;;;;5092155;28;20044;-64
2022/05/26 04:12:03;;;;;;;15.20;2.85;;;12.70;99.90;;;;;;5092946;28;20381;-68
2022/05/26 04:14:28;;;;;;;10.88;2.38;;;12.80;99.90;;;;;;5092900;28;20407;-65
2022/05/26 04:16:54;;;;;;;11.07;2.75;;;12.30;99.90;;;;;;5092978;28;20047;-64
2022/05/26 04:19:20;;;;;;;14.82;2.88;;;12.70;99.90;;;;;;5093066;28;20055;-64
2022/05/26 04:22:30;;;;;;;17.38;2.47;;;13.00;99.90;;;;;;5093055;28;20133;-64
2022/05/26 04:24:31;;;;;;;12.27;2.30;;;12.70;99.90;;;;;;5088735;28;20091;-64
2022/05/26 04:26:57;;;;;;;15.32;2.60;;;12.40;99.90;;;;;;5092666;28;20113;-65
2022/05/26 04:29:23;;;;;;;15.68;3.00;;;12.40;99.90;;;;;;5092518;28;20228;-66
2022/05/26 04:31:50;;;;;;;17.17;3.65;;;12.30;99.90;;;;;;5092811;28;20503;-65
2022/05/26 04:34:15;;;;;;;11.70;2.40;;;12.40;99.90;;;;;;5092758;28;20051;-64
2022/05/26 04:36:41;;;;;;;18.15;3.45;;;12.40;99.90;;;;;;5092728;28;20499;-64
2022/05/26 04:39:06;;;;;;;11.90;2.95;;;13.30;99.90;;;;;;5091416;28;20237;-65
2022/05/26 04:41:32;;;;;;;11.30;2.47;;;13.10;99.90;;;;;;5092631;28;20052;-70
2022/05/26 04:43:58;;;;;;;9.40;2.70;;;12.20;99.90;;;;;;5092476;28;20048;-65
2022/05/26 04:46:23;;;;;;;14.77;3.00;;;12.30;99.90;;;;;;5092622;28;20040;-65
2022/05/26 04:48:49;;;;;;;11.40;2.80;;;12.90;99.90;;;;;;5074877;28;20136;-65
2022/05/26 04:51:15;;;;;;;12.90;2.65;;;12.20;99.90;;;;;;5091145;28;20127;-65
2022/05/26 04:53:40;;;;;;;14.93;2.83;;;12.10;99.90;;;;;;5092592;28;20048;-66
2022/05/26 04:56:06;;;;;;;9.23;2.97;;;12.50;99.90;;;;;;5074709;28;20052;-65
2022/05/26 04:58:31;;;;;;;14.10;2.47;;;12.40;99.90;;;;;;5092337;28;20755;-64
2022/05/26 05:00:57;;;;;;;11.07;2.50;;;12.20;99.90;;;;;;5092552;28;20048;-65
2022/05/26 05:03:23;;;;;;;12.15;2.55;;;13.40;99.90;;;;;;5091329;28;20039;-66
2022/05/26 05:05:49;;;;;;;15.50;2.50;;;12.20;99.90;;;;;;5092329;28;20043;-65
2022/05/26 05:08:15;;;;;;;9.98;2.30;;;12.40;99.90;;;;;;5092295;28;20048;-64
2022/05/26 05:10:41;;;;;;;17.30;3.35;;;12.50;99.90;;;;;;5092212;28;20059;-64
2022/05/26 05:13:09;;;;;;;10.50;2.20;;;12.20;99.90;;;;;;5092182;28;20043;-65
2022/05/26 05:15:41;;;;;;;14.63;2.67;;;12.50;99.90;;;;;;5092525;28;20039;-64
2022/05/26 05:18:07;;;;;;;16.20;2.17;;;12.50;99.90;;;;;;5092303;28;20058;-64
2022/05/26 05:20:34;;;;;;;12.68;2.30;;;13.00;99.90;;;;;;5094853;28;20070;-68
2022/05/26 05:23:06;;;;;;;16.45;2.95;;;12.70;99.90;;;;;;5096305;28;20126;-65
2022/05/26 05:25:39;;;;;;;10.75;2.45;;;13.10;99.90;;;;;;5094926;28;20384;-65
2022/05/26 05:28:09;;;;;;;15.70;2.40;;;12.90;99.90;;;;;;5096374;28;20088;-65
2022/05/26 05:30:54;;;;;;;9.65;2.30;;;13.20;99.90;;;;;;5095945;28;20056;-64
2022/05/26 05:33:30;;;;;;;14.88;2.53;;;13.00;99.90;;;;;;5096422;28;20054;-64
2022/05/26 05:36:04;;;;;;;10.10;2.10;;;13.10;99.90;;;;;;5096072;28;20122;-65
2022/05/26 05:38:31;;;;;;;13.05;2.42;;;13.30;99.90;;;;;;5095981;28;20580;-65
2022/05/26 05:40:56;;;;;;;14.68;2.60;;;13.50;99.90;;;;;;5095795;28;20046;-65
2022/05/26 05:43:22;;;;;;;11.13;2.05;;;13.70;99.90;;;;;;5095881;28;20484;-65
2022/05/26 05:45:48;;;;;;;13.05;2.20;;;13.80;99.90;;;;;;5095944;28;20127;-65
2022/05/26 05:48:13;;;;;;;16.25;2.63;;;14.30;99.90;;;;;;5095774;28;20048;-67
2022/05/26 05:50:39;;;;;;;12.98;2.83;;;13.90;99.90;;;;;;5095633;28;20046;-65
2022/05/26 05:53:05;;;;;;;13.98;2.20;;;13.90;99.90;;;;;;5095770;28;20165;-65
2022/05/26 05:55:31;;;;;;;;;;;14.10;99.90;;;;;;5096232;28;20048;-64
2022/05/26 05:57:57;;;;;;;12.25;2.05;;;14.30;99.90;;;;;;5095494;28;19924;-65
2022/05/26 06:00:23;;;;;;;7.18;2.05;;;14.10;99.90;;;;;;5095559;28;20381;-65
2022/05/26 06:02:49;;;;;;;8.25;1.88;;;14.10;99.90;;;;;;5094209;28;20119;-65
2022/05/26 06:05:14;;;;;;;;;;;15.40;99.90;;;;;;5093434;28;20536;-65
2022/05/26 06:07:41;;;;;;;14.65;2.70;;;14.00;99.90;;;;;;5078591;28;19954;-65
2022/05/26 06:10:13;;;;;;;8.40;1.92;;;14.40;99.90;;;;;;5075126;28;20123;-65
2022/05/26 06:12:39;;;;;;;8.90;1.80;;;14.40;99.90;;;;;;5093376;28;20052;-65
2022/05/26 06:15:06;;;;;;;10.23;2.00;;;14.10;99.90;;;;;;5095274;28;20055;-64
2022/05/26 06:17:32;;;;;;;11.90;2.97;;;14.50;99.90;;;;;;5095106;28;20036;-65
2022/05/26 06:19:58;;;;;;;7.45;2.15;;;14.50;99.90;;;;;;5086083;28;20052;-65
2022/05/26 06:22:24;;;;;;;8.70;2.17;;;14.30;99.90;;;;;;5093578;28;20127;-65
2022/05/26 06:24:50;;;;;;;13.20;1.98;;;14.40;99.90;;;;;;5093847;28;20067;-66
2022/05/26 06:30:08;;;;;;;13.98;2.17;;;14.80;99.90;;;;;;5090626;28;20091;-68
2022/05/26 06:38:23;;;;;;;8.90;1.83;;;14.30;99.90;;;;;;5093718;28;20063;-67
2022/05/26 06:40:50;;;;;;;13.05;2.03;;;14.60;99.90;;;;;;5093080;28;20044;-65
2022/05/26 06:43:17;;;;;;;10.15;2.20;;;14.50;99.90;;;;;;5093347;28;20400;-65
2022/05/26 06:45:45;;;;;;;10.73;2.13;;;15.10;99.90;;;;;;5092590;28;20055;-65
2022/05/26 06:48:11;;;;;;;15.02;2.85;;;14.80;99.90;;;;;;5093712;28;20048;-66
2022/05/26 06:50:38;;;;;;;;;;;15.00;99.90;;;;;;5093036;28;20048;-66
2022/05/26 06:53:03;;;;;;;8.10;1.80;;;16.00;99.90;;;;;;5093505;28;19920;-66
2022/05/26 06:55:29;;;;;;;9.15;1.90;;;14.80;99.90;;;;;;5092749;28;20415;-68
2022/05/26 06:57:55;;;;;;;;;;;14.80;99.90;;;;;;5092858;28;20513;-66
2022/05/26 07:00:20;;;;;;;6.82;1.80;;;14.90;99.90;;;;;;5093421;28;19930;-66
2022/05/26 07:02:46;;;;;;;;;;;14.80;99.90;;;;;;5093041;28;20036;-65
2022/05/26 07:05:14;;;;;;;7.18;1.70;;;15.30;99.90;;;;;;5091898;28;20049;-65
2022/05/26 07:07:41;;;;;;;5.95;1.48;;;15.10;99.90;;;;;;5089481;28;20052;-66
2022/05/26 07:10:08;;;;;;;11.18;2.78;;;15.20;99.90;;;;;;5092235;28;20101;-67
2022/05/26 07:12:35;;;;;;;13.38;2.28;;;15.30;99.90;;;;;;5092695;28;20126;-67
2022/05/26 07:15:03;;;;;;;11.02;2.50;;;15.00;99.90;;;;;;5093063;28;20128;-66
2022/05/26 07:17:29;;;;;;;12.00;2.08;;;15.20;99.90;;;;;;5092954;28;20079;-65
2022/05/26 07:19:55;;;;;;;;;;;15.50;99.90;;;;;;5092649;28;20161;-66
2022/05/26 07:22:21;;;;;;;13.50;2.85;;;15.30;99.90;;;;;;5092710;28;19924;-68
2022/05/26 07:24:49;;;;;;;7.45;1.58;;;15.60;99.90;;;;;;5092982;28;20122;-65
2022/05/26 07:27:15;;;;;;;13.27;1.70;;;15.70;99.90;;;;;;5091671;28;20467;-66
2022/05/26 07:29:41;;;;;;;11.75;2.03;;;15.60;99.90;;;;;;5092990;28;20177;-64
2022/05/26 07:32:07;;;;;;;;;;;16.00;99.90;;;;;;5092515;28;20451;-69
2022/05/26 07:34:33;;;;;;;7.05;1.30;;;15.30;99.90;;;;;;5091522;28;19927;-69
2022/05/26 07:42:32;;;;;;;8.45;1.70;;;15.30;99.90;;;;;;5093439;28;20503;-65
2022/05/26 07:45:00;;;;;;;7.38;1.75;;;15.90;99.90;;;;;;5093519;28;20377;-66
2022/05/26 07:47:27;;;;;;;9.25;1.50;;;15.60;99.90;;;;;;5093381;28;20070;-66
2022/05/26 07:49:54;;;;;;;9.73;1.90;;;15.30;99.90;;;;;;5093472;28;20047;-66
2022/05/26 07:52:20;;;;;;;9.02;2.42;;;15.20;99.90;;;;;;5093430;28;20044;-66
2022/05/26 07:54:46;;;;;;;;;;;15.20;99.90;;;;;;5093882;28;20040;-66
2022/05/26 07:57:22;;;;;;;7.85;1.92;;;15.00;99.90;;;;;;5093353;28;19920;-67
2022/05/26 07:59:49;;;;;;;6.60;2.03;;;15.30;99.90;;;;;;5093121;28;20066;-66
2022/05/26 08:02:15;;;;;;;12.43;2.42;;;15.00;99.90;;;;;;5093319;28;20039;-66
2022/05/26 08:04:40;;;;;;;;;;;15.00;99.90;;;;;;5085684;28;20508;-66
2022/05/26 08:07:06;;;;;;;10.70;1.80;;;15.20;99.90;;;;;;5091600;28;19999;-66
2022/05/26 08:09:32;;;;;;;;;;;15.10;99.90;;;;;;5092562;28;20407;-65
2022/05/26 08:11:57;;;;;;;14.70;2.45;;;15.50;99.90;;;;;;5091386;28;19920;-65
2022/05/26 08:14:23;;;;;;;;;;;15.30;99.90;;;;;;5092552;28;20044;-65
2022/05/26 08:16:49;;;;;;;11.63;2.10;;;15.20;99.90;;;;;;5091131;28;19927;-69
2022/05/26 08:19:15;;;;;;;;;;;15.40;99.90;;;;;;5087779;28;20040;-65
2022/05/26 08:21:40;;;;;;;6.97;1.88;;;15.40;99.90;;;;;;5091753;28;20046;-67
2022/05/26 08:24:06;;;;;;;;;;;15.60;99.90;;;;;;5092710;28;20221;-73
2022/05/26 08:26:32;;;;;;;9.80;1.77;;;15.80;99.90;;;;;;5110216;27;19920;-65
2022/05/26 08:28:58;;;;;;;;;;;15.70;99.90;;;;;;5112308;28;20047;-66
2022/05/26 08:31:24;;;;;;;11.23;2.22;;;15.70;99.90;;;;;;5112247;28;19927;-66
2022/05/26 08:33:51;;;;;;;6.15;1.48;;;15.60;99.90;;;;;;5112795;28;20130;-65
2022/05/26 08:36:21;;;;;;;6.85;1.63;;;15.60;99.90;;;;;;5102761;28;20120;-66
2022/05/26 08:38:48;;;;;;;9.93;1.80;;;16.00;99.90;;;;;;5092320;28;20059;-63
2022/05/26 08:41:23;;;;;;;8.15;1.77;;;16.40;99.90;;;;;;5089605;28;20373;-66
2022/05/26 08:44:05;;;;;;;9.05;2.10;;;16.30;99.90;;;;;;5090089;28;20048;-64
2022/05/26 08:46:43;;;;;;;12.90;2.00;;;16.50;99.90;;;;;;5092020;28;20403;-64
2022/05/26 08:49:11;;;;;;;5.82;1.48;;;16.10;99.90;;;;;;5092114;28;20044;-64
2022/05/26 08:51:47;;;;;;;9.23;1.55;;;16.30;99.90;;;;;;5091312;28;20044;-67
2022/05/26 08:54:37;;;;;;;6.97;1.23;;;15.90;99.90;;;;;;5084146;28;20827;-66
2022/05/26 08:57:07;;;;;;;6.03;1.50;;;16.50;99.90;;;;;;5088513;28;20083;-67
2022/05/26 08:59:39;;;;;;;13.35;2.30;;;16.40;99.90;;;;;;5090993;28;20134;-66
2022/05/26 09:02:09;;;;;;;6.22;1.70;;;16.60;99.90;;;;;;5090953;28;20043;-67
2022/05/26 09:04:35;;;;;;;8.55;1.50;;;16.00;99.90;;;;;;5091376;28;20050;-66
2022/05/26 09:12:57;;;;;;;7.38;1.52;;;16.20;99.90;;;;;;5090353;28;20078;-66
2022/05/26 09:15:27;;;;;;;8.98;1.67;;;16.30;99.90;;;;;;5090669;28;20054;-67
2022/05/26 09:17:55;;;;;;;8.88;2.10;;;16.20;99.90;;;;;;5092134;28;20077;-66
2022/05/26 09:20:30;;;;;;;5.53;1.20;;;16.10;99.90;;;;;;5092041;28;20113;-68
2022/05/26 09:23:12;;;;;;;7.20;1.42;;;16.10;99.90;;;;;;5092221;28;20127;-67
2022/05/26 09:26:03;;;;;;;6.15;1.58;;;15.90;99.90;;;;;;5090111;28;20055;-66
2022/05/26 09:28:30;;;;;;;4.65;1.50;;;15.90;99.90;;;;;;5091466;28;20055;-68
2022/05/26 09:31:16;;;;;;;5.45;1.65;;;15.90;99.90;;;;;;5091952;28;20081;-70
2022/05/26 09:33:41;;;;;;;9.77;1.40;;;16.50;99.90;;;;;;5090718;28;20392;-67
2022/05/26 09:36:23;;;;;;;;;;;16.80;99.90;;;;;;5092734;28;20054;-66
2022/05/26 09:38:49;;;;;;;6.70;1.83;;;16.50;99.90;;;;;;5092115;28;19920;-68
2022/05/26 09:41:16;;;;;;;;;;;16.70;99.90;;;;;;5091524;28;20048;-66
2022/05/26 09:43:48;;;;;;;7.22;1.67;;;16.90;99.90;;;;;;5092038;28;20292;-66
2022/05/26 09:46:16;;;;;;;7.28;1.65;;;16.90;99.90;;;;;;5091965;28;20091;-66
2022/05/26 09:48:45;;;;;;;4.88;1.30;;;17.10;99.90;;;;;;5091955;28;20444;-67
2022/05/26 09:51:24;;;;;;;9.20;1.73;;;17.90;99.90;;;;;;5091980;28;20046;-66
2022/05/26 09:53:54;;;;;;;7.40;1.40;;;16.60;99.90;;;;;;5091985;28;20377;-69
2022/05/26 09:56:37;;;;;;;4.43;1.20;;;16.50;99.90;;;;;;5091938;28;20052;-66
2022/05/26 09:59:24;;;;;;;5.72;1.50;;;16.20;99.90;;;;;;5092054;28;20060;-66
2022/05/26 10:01:52;;;;;;;5.25;1.70;;;16.10;99.90;;;;;;5091975;28;20081;-67
2022/05/26 10:04:45;;;;;;;9.82;1.70;;;15.70;99.90;;;;;;5090830;28;20048;-66
2022/05/26 10:07:17;;;;;;;8.43;1.92;;;16.20;99.90;;;;;;5093549;28;20062;-67
2022/05/26 10:10:24;;;;;;;9.10;2.20;;;15.80;99.90;;;;;;5095440;28;20044;-68
2022/05/26 10:12:59;;;;;;;8.43;2.33;;;16.60;99.90;;;;;;5077158;28;20330;-66
2022/05/26 10:15:36;;;;;;;6.05;1.45;;;16.40;99.90;;;;;;5095395;28;20185;-67
2022/05/26 10:18:32;;;;;;;9.73;1.80;;;16.50;99.90;;;;;;5095307;28;20056;-67
2022/05/26 10:21:04;;;;;;;4.15;1.40;;;17.20;99.90;;;;;;5095268;28;20080;-68
2022/05/26 10:23:48;;;;;;;5.68;1.50;;;17.00;99.90;;;;;;5095199;28;20416;-67
2022/05/26 10:26:23;;;;;;;6.93;1.75;;;17.40;99.90;;;;;;5095261;28;20079;-68
2022/05/26 10:29:33;;;;;;;8.25;1.70;;;17.50;99.90;;;;;;5095306;28;20463;-66
2022/05/26 10:32:12;;;;;;;13.55;2.25;;;17.50;99.90;;;;;;5082210;28;20051;-68
2022/05/26 10:34:47;;;;;;;6.18;1.42;;;17.50;99.90;;;;;;5076931;28;20060;-66
2022/05/26 10:37:42;;;;;;;9.27;1.60;;;17.40;99.90;;;;;;5095099;28;20048;-67
2022/05/26 10:40:24;;;;;;;6.05;1.55;;;17.90;99.90;;;;;;5094843;28;20083;-67
2022/05/26 10:43:12;;;;;;;7.43;1.88;;;17.40;99.90;;;;;;5094811;28;20093;-70
2022/05/26 10:45:45;;;;;;;9.52;1.67;;;17.60;99.90;;;;;;5094708;28;20633;-69
2022/05/26 10:48:48;;;;;;;6.30;1.42;;;17.70;99.90;;;;;;5094724;28;20123;-67
2022/05/26 10:51:29;;;;;;;5.63;1.77;;;18.00;99.90;;;;;;5094710;28;20080;-68
2022/05/26 10:53:57;;;;;;;6.15;2.00;;;17.10;99.90;;;;;;5094479;28;20105;-66
2022/05/26 10:56:36;;;;;;;7.80;1.67;;;17.50;99.90;;;;;;5094650;28;20077;-67
2022/05/26 10:59:39;;;;;;;7.57;1.80;;;17.70;99.90;;;;;;5094556;28;20054;-67
2022/05/26 11:02:51;;;;;;;8.88;2.00;;;18.10;99.90;;;;;;5094368;28;20036;-67
2022/05/26 11:05:41;;;;;;;10.50;2.03;;;18.00;99.90;;;;;;5071788;28;20049;-70
2022/05/26 11:08:15;;;;;;;10.30;2.53;;;18.10;99.90;;;;;;5094519;28;20052;-67
2022/05/26 11:10:49;;;;;;;8.95;1.80;;;18.40;99.90;;;;;;5094151;28;20134;-66
2022/05/26 11:13:33;;;;;;;6.40;1.92;;;17.60;99.90;;;;;;5093180;28;20173;-68
2022/05/26 11:18:59;;;;;;;6.72;1.77;;;17.30;99.90;;;;;;5093694;28;20135;-68
2022/05/26 11:21:25;;;;;;;7.75;2.25;;;17.40;99.90;;;;;;5094095;28;20036;-67
2022/05/26 11:23:51;;;;;;;7.32;2.17;;;17.40;99.90;;;;;;5094021;28;20048;-66
2022/05/26 11:26:43;;;;;;;8.43;2.33;;;17.80;99.90;;;;;;5092825;28;20160;-67
2022/05/26 11:29:27;;;;;;;5.57;2.00;;;17.70;99.90;;;;;;5092832;28;20395;-68
2022/05/26 11:38:18;;;;;;;10.80;1.73;;;17.20;99.90;;;;;;5093829;28;20148;-68
2022/05/26 11:41:10;;;;;;;6.93;1.63;;;17.60;99.90;;;;;;5093655;28;20044;-69
2022/05/26 11:43:46;;;;;;;9.73;1.58;;;17.40;99.90;;;;;;5093878;28;20040;-68
2022/05/26 11:46:33;;;;;;;5.32;1.55;;;17.40;99.90;;;;;;5093560;28;20048;-67
2022/05/26 11:48:59;;;;;;;4.30;1.45;;;17.40;99.90;;;;;;5075558;28;20040;-69
2022/05/26 11:51:30;;;;;;;5.45;1.92;;;17.60;99.90;;;;;;5093325;28;20048;-68
2022/05/26 11:53:57;;;;;;;6.47;1.67;;;17.80;99.90;;;;;;5093368;28;20561;-67
2022/05/26 11:56:25;;;;;;;4.85;1.45;;;17.80;99.90;;;;;;5093323;28;20500;-70
2022/05/26 11:59:17;;;;;;;11.82;2.15;;;18.00;99.90;;;;;;5093223;28;20056;-67
2022/05/26 12:01:46;;;;;;;7.03;1.60;;;17.80;99.90;;;;;;5082853;28;20044;-66
2022/05/26 12:04:33;;;;;;;3.83;1.60;;;17.60;99.90;;;;;;5093329;28;20044;-68
2022/05/26 12:07:23;;;;;;;6.70;1.67;;;17.80;99.90;;;;;;5093367;28;20131;-69
2022/05/26 12:09:57;;;;;;;8.52;1.48;;;17.50;99.90;;;;;;5092838;28;20048;-67
2022/05/26 12:12:22;;;;;;;8.05;1.50;;;17.80;99.90;;;;;;5092944;28;20040;-67
2022/05/26 12:14:50;;;;;;;8.85;1.75;;;18.00;99.90;;;;;;5093196;28;20408;-68
2022/05/26 12:17:29;;;;;;;5.38;1.50;;;18.30;99.90;;;;;;5093131;28;20048;-68
2022/05/26 12:19:55;;;;;;;8.00;1.70;;;17.90;99.90;;;;;;5092908;28;20518;-68
2022/05/26 12:22:21;;;;;;;7.95;1.58;;;17.80;99.90;;;;;;5092984;28;20082;-67
2022/05/26 12:24:50;;;;;;;6.03;1.63;;;17.70;99.90;;;;;;5092663;28;20083;-68
2022/05/26 12:27:54;;;;;;;5.00;1.50;;;17.70;99.90;;;;;;5092965;28;20054;-67
2022/05/26 12:30:44;;;;;;;7.35;1.50;;;17.70;99.90;;;;;;5091974;28;20060;-69
2022/05/26 12:33:21;;;;;;;6.70;1.65;;;17.60;99.90;;;;;;5092584;28;20503;-68
2022/05/26 12:35:50;;;;;;;8.52;1.70;;;17.90;99.90;;;;;;5092654;28;20563;-67
2022/05/26 12:38:34;;;;;;;8.63;1.77;;;17.80;99.90;;;;;;5092534;28;20101;-67
2022/05/26 12:41:03;;;;;;;6.40;1.52;;;17.60;99.90;;;;;;5092666;28;20055;-69
2022/05/26 12:43:34;;;;;;;11.07;2.55;;;17.40;99.90;;;;;;5092550;28;20052;-70
2022/05/26 12:46:43;;;;;;;3.78;1.35;;;17.10;99.90;;;;;;5092651;28;20154;-66
2022/05/26 12:49:45;;;;;;;3.70;1.25;;;17.30;99.90;;;;;;5091235;28;20052;-68
2022/05/26 12:52:49;;;;;;;9.30;1.60;;;17.30;99.90;;;;;;5091591;28;20044;-68
2022/05/26 12:55:48;;;;;;;8.30;1.77;;;17.40;99.90;;;;;;5069762;28;20047;-68
2022/05/26 12:58:22;;;;;;;7.88;1.67;;;17.20;99.90;;;;;;5092358;28;20048;-68
2022/05/26 13:00:56;;;;;;;8.40;1.63;;;17.40;99.90;;;;;;5092529;28;20543;-68
2022/05/26 13:03:35;;;;;;;7.18;1.90;;;17.40;99.90;;;;;;5092453;28;20448;-68
2022/05/26 13:06:07;;;;;;;7.88;1.60;;;16.80;99.90;;;;;;5092440;28;20052;-68
2022/05/26 13:08:44;;;;;;;9.38;1.90;;;17.40;99.90;;;;;;5092238;28;20131;-68
2022/05/26 13:11:15;;;;;;;7.75;1.50;;;16.80;99.90;;;;;;5092498;28;20044;-69
2022/05/26 13:13:48;;;;;;;6.70;1.30;;;16.80;99.90;;;;;;5092512;28;20044;-68
2022/05/26 13:16:26;;;;;;;4.22;1.50;;;16.80;99.90;;;;;;5092316;28;20052;-68
2022/05/26 13:19:05;;;;;;;9.50;1.45;;;16.90;99.90;;;;;;5092266;28;20395;-67
2022/05/26 13:21:31;;;;;;;6.68;1.20;;;17.10;99.90;;;;;;5092092;28;20058;-68
2022/05/26 13:23:57;;;;;;;;;;;17.30;99.90;;;;;;5092756;28;20048;-67
2022/05/26 13:26:23;;;;;;;7.07;1.70;;;16.80;99.90;;;;;;5092353;28;20385;-67
2022/05/26 13:28:53;;;;;;;5.18;1.33;;;16.60;99.90;;;;;;5092131;28;20135;-70
2022/05/26 13:34:07;;;;;;;7.22;1.65;;;16.40;99.90;;;;;;5092127;28;20506;-66
2022/05/26 13:36:53;;;;;;;8.63;1.92;;;16.50;99.90;;;;;;5092385;28;20048;-66
2022/05/26 13:39:25;;;;;;;9.88;2.08;;;16.80;99.90;;;;;;5090944;28;20052;-72
2022/05/26 13:41:53;;;;;;;9.02;1.73;;;16.90;99.90;;;;;;5094849;28;20052;-66
2022/05/26 13:44:36;;;;;;;9.20;1.67;;;16.80;99.90;;;;;;5096068;28;20048;-71
2022/05/26 13:47:06;;;;;;;11.43;1.60;;;16.70;99.90;;;;;;5094760;28;20043;-69
2022/05/26 13:49:37;;;;;;;7.28;1.70;;;16.70;99.90;;;;;;5096001;28;20052;-68
2022/05/26 13:52:28;;;;;;;5.45;1.58;;;16.70;99.90;;;;;;5095685;28;20047;-68
2022/05/26 13:55:01;;;;;;;8.20;1.67;;;16.80;99.90;;;;;;5095468;28;20135;-67
2022/05/26 13:57:31;;;;;;;5.85;1.52;;;16.80;99.90;;;;;;5095807;28;20076;-69
2022/05/26 14:00:14;;;;;;;10.90;1.90;;;16.80;99.90;;;;;;5095728;28;20569;-68